首页
METAR-TAF:

METAR-TAF

机场 :

博阿維斯塔, 羅賴馬州, 巴西

纬度: 02-50N, 经度: 060-42W, 海拔: 84米

当前天气观测

该预报发布于58分钟前的14:00 UTC
风速4节,风向东转东南
温度 34°C
湿度 39%
气压 1011 hPa
能见度10公里或以上
1500米以下无云,无积雨云

METAR: SBBV 021400Z 11004KT CAVOK 34/18 Q1011

时间: 10:58 (14:58 UTC)

预报

该预报发布于6小时和51分钟前的08:07 UTC
预报有效从02日的 12点(UTC)到 03日的 12点(UTC)
风速5节,风向西南
能见度10公里或以上
1500米以下无云,无积雨云
成为
从 02日的 12点(UTC)到 02日的 14点(UTC)
风速5节,风向东北
成为
从 02日的 18点(UTC)到 02日的 20点(UTC)
风速6节,风向东南
成为
从 03日的 00点(UTC)到 03日的 02点(UTC)
风速5节,风向东转东北
成为
从 03日的 06点(UTC)到 03日的 08点(UTC)
风速5节,风向西南
少量云层高于3000英尺

TAF: SBBV 020807Z 0212/0312 23005KT CAVOK TX38/0218Z TN28/0309Z BECMG 0212/0214 05005KT BECMG 0218/0220 13006KT BECMG 0300/0302 07005KT BECMG 0306/0308 23005KT FEW030 RMK PGA

超过4000个机场的气象观测和天气预报(METAR&TAF报告)。

可查询的气象台以黄色和红色小点在地图上表示。

将鼠标移到小点上方,可查看气象台名称。

然后点击查看天气观测和预报。

如需切换地图:点击带黑十字的绿色按钮放大地图;点击带横线的绿色按钮缩小地图;或者点击绿色箭头查看邻近地区的地图。


METAR-TAF: